Time;durP1;ratioP1;P1;durP2;ratioP2;P2;SDS_P1;SDS_P2;PMS_P1;PMS_P2;Temp;Humidity;BMP_temperature;BMP_pressure;BME280_temperature;BME280_humidity;BME280_pressure;Samples;Min_cycle;Max_cycle;Signal;HPM_P1;HPM_P2
2022/08/03 00:01:47;;;;;;;0.32;0.32;;;;;;;18.23;100.00;101528.59;10544505;28;20040;-79
2022/08/03 00:06:48;;;;;;;0.20;0.10;;;;;;;18.02;100.00;101512.00;10552458;28;20036;-78
2022/08/03 00:11:50;;;;;;;0.85;0.30;;;;;;;18.17;100.00;101525.97;10535109;28;20048;-77
2022/08/03 00:16:52;;;;;;;0.20;0.10;;;;;;;18.21;100.00;101520.78;10545037;28;20036;-78
2022/08/03 00:21:53;;;;;;;0.22;0.22;;;;;;;18.10;100.00;101519.00;10534685;28;20052;-78
2022/08/03 00:26:55;;;;;;;0.10;0.10;;;;;;;18.18;100.00;101517.28;10538250;28;20047;-79
2022/08/03 00:31:56;;;;;;;0.85;0.43;;;;;;;18.15;100.00;101502.50;10546479;28;20117;-78
2022/08/03 00:37:00;;;;;;;1.88;1.02;;;;;;;17.94;100.00;101508.47;10569680;28;20086;-79
2022/08/03 00:42:03;;;;;;;0.65;0.43;;;;;;;17.97;100.00;101515.44;10545191;28;20048;-79
2022/08/03 00:47:06;;;;;;;0.20;0.20;;;;;;;17.67;100.00;101520.47;10551381;28;20046;-78
2022/08/03 00:52:09;;;;;;;0.15;0.15;;;;;;;17.42;100.00;101520.31;10560248;28;20057;-78
2022/08/03 00:57:12;;;;;;;0.00;0.00;;;;;;;17.57;100.00;101523.88;10527534;28;20043;-79
2022/08/03 01:02:14;;;;;;;0.00;0.00;;;;;;;17.10;100.00;101523.50;10505399;28;20036;-78
2022/08/03 01:07:39;;;;;;;0.75;0.28;;;;;;;17.08;100.00;101522.66;10539322;28;20486;-78
2022/08/03 01:12:49;;;;;;;0.35;0.35;;;;;;;17.00;100.00;101516.50;10542411;28;20036;-78
2022/08/03 01:17:56;;;;;;;;;;;;;;;17.02;100.00;101504.34;10519823;28;20407;-79
2022/08/03 01:23:29;;;;;;;0.57;0.57;;;;;;;16.95;100.00;101497.34;10517896;28;20015;-79
2022/08/03 01:28:49;;;;;;;0.35;0.22;;;;;;;16.90;100.00;101525.03;10576401;28;20051;-79
2022/08/03 01:33:57;;;;;;;0.00;0.00;;;;;;;16.83;100.00;101513.69;10538257;28;20032;-78
2022/08/03 01:39:02;;;;;;;0.15;0.15;;;;;;;16.85;100.00;101516.31;10527272;28;20082;-79
2022/08/03 01:44:07;;;;;;;0.15;0.00;;;;;;;16.81;100.00;101498.06;10498184;28;20042;-78
2022/08/03 01:49:33;;;;;;;1.08;0.50;;;;;;;16.69;100.00;101495.34;10533492;28;20047;-79
2022/08/03 01:54:42;;;;;;;0.38;0.35;;;;;;;16.69;100.00;101500.56;10515803;28;20040;-78
2022/08/03 01:59:47;;;;;;;0.35;0.30;;;;;;;16.81;100.00;101490.25;10508201;28;20051;-78
2022/08/03 02:04:51;;;;;;;0.55;0.17;;;;;;;16.66;100.00;101490.09;10540603;28;20048;-78
2022/08/03 02:09:54;;;;;;;0.20;0.20;;;;;;;16.57;100.00;101500.44;10557010;28;20482;-79
2022/08/03 02:14:58;;;;;;;0.30;0.30;;;;;;;16.58;100.00;101496.94;10556703;28;20044;-79
2022/08/03 02:20:02;;;;;;;0.03;0.03;;;;;;;16.68;100.00;101485.78;10543804;28;20042;-78
2022/08/03 02:25:04;;;;;;;0.00;0.00;;;;;;;16.46;100.00;101493.38;10517426;28;20131;-79
2022/08/03 02:30:09;;;;;;;0.10;0.10;;;;;;;16.65;100.00;101493.56;10553186;28;20118;-79
2022/08/03 02:35:15;;;;;;;0.17;0.17;;;;;;;16.56;100.00;101515.16;10524404;28;20048;-78
2022/08/03 02:40:19;;;;;;;1.13;0.95;;;;;;;16.66;100.00;101521.31;10534247;28;20040;-78
2022/08/03 02:45:25;;;;;;;0.30;0.30;;;;;;;16.86;100.00;101528.47;10558658;28;20123;-79
2022/08/03 02:50:29;;;;;;;0.45;0.25;;;;;;;16.94;100.00;101521.66;10536589;28;20047;-79
2022/08/03 02:55:34;;;;;;;0.30;0.30;;;;;;;17.09;100.00;101521.75;10531787;28;20043;-78
2022/08/03 03:00:38;;;;;;;0.28;0.20;;;;;;;17.15;100.00;101507.06;10541582;28;20036;-79
2022/08/03 03:05:41;;;;;;;0.98;0.63;;;;;;;17.26;100.00;101508.00;10557149;28;20130;-78
2022/08/03 03:11:06;;;;;;;0.30;0.30;;;;;;;17.15;100.00;101500.13;10529634;28;20857;-78
2022/08/03 03:16:10;;;;;;;0.00;0.00;;;;;;;17.04;100.00;101489.63;10529104;28;20039;-79
2022/08/03 03:21:15;;;;;;;0.13;0.10;;;;;;;16.93;100.00;101486.06;10547562;28;20040;-79
2022/08/03 03:26:18;;;;;;;0.08;0.08;;;;;;;16.78;100.00;101482.44;10532682;28;20549;-79
2022/08/03 03:31:21;;;;;;;0.45;0.15;;;;;;;16.67;100.00;101491.84;10533509;28;20093;-79
2022/08/03 03:36:22;;;;;;;1.40;0.20;;;;;;;16.70;100.00;101491.91;10516479;28;20044;-79
2022/08/03 03:41:24;;;;;;;0.32;0.30;;;;;;;16.62;100.00;101493.53;10559194;28;20043;-79
2022/08/03 03:46:26;;;;;;;0.25;0.17;;;;;;;16.41;100.00;101496.78;10548946;28;20055;-79
2022/08/03 03:51:29;;;;;;;0.70;0.38;;;;;;;16.53;100.00;101519.44;10547793;28;20475;-79
2022/08/03 03:56:32;;;;;;;1.60;0.68;;;;;;;16.53;100.00;101574.94;10536032;28;20043;-78
2022/08/03 04:01:33;;;;;;;0.52;0.43;;;;;;;16.76;100.00;101569.13;10535887;28;20073;-79
2022/08/03 04:11:59;;;;;;;3.10;0.60;;;;;;;17.44;100.00;101583.72;10522449;28;20044;-78
2022/08/03 04:17:06;;;;;;;0.70;0.43;;;;;;;17.37;100.00;101568.00;10542274;28;20044;-79
2022/08/03 04:22:12;;;;;;;0.47;0.30;;;;;;;17.50;100.00;101556.81;10548231;28;20034;-79
2022/08/03 04:27:22;;;;;;;0.82;0.28;;;;;;;17.61;100.00;101575.13;10521709;28;20044;-79
2022/08/03 04:32:27;;;;;;;0.73;0.50;;;;;;;17.39;100.00;101561.94;10538690;28;20040;-79
2022/08/03 04:37:38;;;;;;;0.68;0.25;;;;;;;17.26;100.00;101560.09;10538972;28;20076;-79
2022/08/03 04:42:42;;;;;;;0.80;0.35;;;;;;;17.58;100.00;101562.09;10535151;28;20135;-79
2022/08/03 04:47:44;;;;;;;0.38;0.38;;;;;;;17.60;100.00;101561.25;10530811;28;20392;-79
2022/08/03 04:52:45;;;;;;;0.10;0.05;;;;;;;17.63;100.00;101569.94;10515515;28;20048;-79
2022/08/03 04:57:47;;;;;;;0.63;0.52;;;;;;;17.86;100.00;101567.50;10525733;28;20121;-79
2022/08/03 05:02:49;;;;;;;0.57;0.55;;;;;;;18.16;100.00;101576.38;10509153;28;20096;-79
2022/08/03 05:07:55;;;;;;;0.93;0.68;;;;;;;18.46;100.00;101580.88;10497128;28;20044;-78
2022/08/03 05:12:56;;;;;;;0.90;0.55;;;;;;;18.70;100.00;101573.97;10520152;28;20051;-78
2022/08/03 05:17:58;;;;;;;0.60;0.38;;;;;;;18.84;100.00;101571.41;10550048;28;20084;-79
2022/08/03 05:23:02;;;;;;;2.10;0.65;;;;;;;19.06;100.00;101571.47;10519988;28;20035;-79
2022/08/03 05:28:04;;;;;;;0.77;0.70;;;;;;;19.20;100.00;101569.75;10533411;28;20403;-79
2022/08/03 05:33:06;;;;;;;0.60;0.52;;;;;;;19.20;100.00;101564.53;10548115;28;20036;-78
2022/08/03 05:38:08;;;;;;;0.40;0.40;;;;;;;19.40;100.00;101567.16;10515593;28;20112;-79
2022/08/03 05:43:10;;;;;;;1.75;1.30;;;;;;;19.74;100.00;101561.88;10535208;28;20028;-79
2022/08/03 05:48:12;;;;;;;2.50;0.60;;;;;;;19.86;100.00;101571.47;10518835;28;20051;-79
2022/08/03 05:53:14;;;;;;;0.40;0.25;;;;;;;20.05;100.00;101555.75;10517685;28;20040;-79
2022/08/03 05:58:16;;;;;;;1.30;0.52;;;;;;;20.15;100.00;101559.22;10515070;28;20056;-79
2022/08/03 06:03:19;;;;;;;0.73;0.40;;;;;;;20.39;100.00;101553.88;10528688;28;20048;-79
2022/08/03 06:08:26;;;;;;;1.70;1.00;;;;;;;20.54;100.00;101518.91;10533126;28;20060;-79
2022/08/03 06:13:28;;;;;;;0.47;0.40;;;;;;;20.91;100.00;101513.44;10528576;28;20499;-78
2022/08/03 06:18:30;;;;;;;2.08;1.02;;;;;;;21.15;100.00;101505.41;10521379;28;20055;-79
2022/08/03 06:23:31;;;;;;;1.50;1.27;;;;;;;21.19;100.00;101507.13;10539690;28;20040;-79
2022/08/03 06:28:53;;;;;;;0.45;0.45;;;;;;;21.55;100.00;101513.78;10526212;28;20056;-79
2022/08/03 06:33:55;;;;;;;0.30;0.30;;;;;;;21.67;100.00;101498.81;10539633;28;20036;-79
2022/08/03 06:39:17;;;;;;;0.65;0.32;;;;;;;21.86;100.00;101492.47;10509382;28;20045;-79
2022/08/03 06:44:19;;;;;;;0.35;0.35;;;;;;;22.03;100.00;101491.41;10537304;28;20040;-79
2022/08/03 06:49:20;;;;;;;0.47;0.40;;;;;;;22.39;100.00;101489.19;10538504;28;20123;-79
2022/08/03 06:54:23;;;;;;;2.80;0.55;;;;;;;22.63;100.00;101480.13;10529286;28;20040;-79
2022/08/03 06:59:24;;;;;;;1.80;1.45;;;;;;;22.73;100.00;101477.31;10558046;28;20082;-78
2022/08/03 07:04:47;;;;;;;0.45;0.38;;;;;;;23.18;100.00;101474.84;10511958;28;20043;-79
2022/08/03 07:09:48;;;;;;;0.08;0.08;;;;;;;23.71;100.00;101464.22;10522265;28;20044;-79
2022/08/03 07:14:59;;;;;;;0.57;0.32;;;;;;;23.82;100.00;101464.00;10537605;28;20032;-79
2022/08/03 07:20:06;;;;;;;0.98;0.52;;;;;;;24.38;100.00;101455.81;10519409;28;20495;-79
2022/08/03 07:25:08;;;;;;;0.63;0.55;;;;;;;24.24;100.00;101457.84;10544485;28;20047;-80
2022/08/03 07:30:10;;;;;;;3.63;0.15;;;;;;;23.87;100.00;101453.38;10539646;28;20048;-79
2022/08/03 07:35:11;;;;;;;0.00;0.00;;;;;;;24.60;100.00;101460.56;10511988;28;20445;-79
2022/08/03 07:40:25;;;;;;;1.27;0.80;;;;;;;24.69;100.00;101454.22;10548272;28;20044;-80
2022/08/03 07:45:32;;;;;;;0.00;0.00;;;;;;;25.28;100.00;101447.44;10527444;28;20039;-79
2022/08/03 07:50:34;;;;;;;0.10;0.10;;;;;;;25.05;100.00;101448.06;10569170;28;20044;-79
2022/08/03 07:55:36;;;;;;;0.20;0.13;;;;;;;25.39;100.00;101449.81;10531912;28;20040;-79
2022/08/03 08:00:38;;;;;;;0.10;0.05;;;;;;;25.21;100.00;101451.16;10519465;28;20067;-79
2022/08/03 08:05:40;;;;;;;0.08;0.08;;;;;;;26.09;100.00;101446.09;10514069;28;20052;-79
2022/08/03 08:10:41;;;;;;;1.90;0.30;;;;;;;25.54;100.00;101451.19;10550460;28;20105;-80
2022/08/03 08:15:59;;;;;;;2.63;0.90;;;;;;;25.19;100.00;101451.22;10550283;28;20050;-79
2022/08/03 08:21:02;;;;;;;0.90;0.40;;;;;;;25.42;100.00;101457.66;10530587;28;20500;-79
2022/08/03 08:26:04;;;;;;;1.55;0.40;;;;;;;25.54;100.00;101459.94;10531026;28;20040;-79
2022/08/03 08:31:06;;;;;;;0.13;0.05;;;;;;;25.93;100.00;101450.91;10544821;28;20032;-79
2022/08/03 08:36:08;;;;;;;4.00;1.13;;;;;;;25.87;100.00;101465.19;10553802;28;20048;-80
2022/08/03 08:41:16;;;;;;;0.00;0.00;;;;;;;26.01;100.00;101458.63;10554178;28;20043;-79
2022/08/03 08:46:19;;;;;;;0.00;0.00;;;;;;;25.86;95.21;101455.53;10551424;28;20039;-81
2022/08/03 08:51:33;;;;;;;0.25;0.15;;;;;;;26.91;95.56;101457.56;10554086;28;20071;-80
2022/08/03 08:56:58;;;;;;;0.00;0.00;;;;;;;27.31;91.33;101471.16;10549333;28;20045;-79
2022/08/03 09:01:59;;;;;;;3.40;0.32;;;;;;;27.57;90.18;101457.94;10549346;28;20163;-79
2022/08/03 09:07:01;;;;;;;0.10;0.10;;;;;;;27.70;90.40;101461.84;10527058;28;20510;-80
2022/08/03 09:12:24;;;;;;;1.60;0.70;;;;;;;27.54;89.90;101451.84;10562218;28;20035;-79
2022/08/03 09:17:43;;;;;;;0.00;0.00;;;;;;;28.38;82.85;101461.03;10538068;28;20059;-79
2022/08/03 09:22:54;;;;;;;0.00;0.00;;;;;;;28.17;85.95;101455.69;10545837;28;20043;-79
2022/08/03 09:28:11;;;;;;;4.47;0.90;;;;;;;28.39;77.50;101453.06;10513554;28;20074;-80
2022/08/03 09:33:45;;;;;;;0.22;0.15;;;;;;;28.61;76.60;101454.81;10540803;28;20040;-79
2022/08/03 09:39:05;;;;;;;1.13;0.65;;;;;;;28.07;77.98;101457.84;10514881;28;20044;-79
2022/08/03 09:44:07;;;;;;;0.50;0.25;;;;;;;28.44;75.83;101458.16;10535519;28;20487;-79
2022/08/03 09:49:29;;;;;;;1.20;0.65;;;;;;;28.89;72.35;101454.53;10532533;28;20052;-78
2022/08/03 09:54:31;;;;;;;1.95;0.20;;;;;;;29.10;71.73;101460.72;10516350;28;20055;-79
2022/08/03 09:59:33;;;;;;;0.00;0.00;;;;;;;29.22;68.80;101461.97;10505962;28;20052;-80
2022/08/03 10:04:46;;;;;;;0.00;0.00;;;;;;;28.53;68.53;101448.97;10512402;28;20386;-79
2022/08/03 10:10:01;;;;;;;1.90;0.10;;;;;;;29.02;69.93;101454.03;10537780;28;20093;-79
2022/08/03 10:15:23;;;;;;;0.03;0.03;;;;;;;29.34;65.32;101450.00;10539889;28;20093;-79
2022/08/03 10:20:50;;;;;;;6.45;1.45;;;;;;;28.93;64.93;101452.66;10523196;28;20040;-79
2022/08/03 10:26:00;;;;;;;1.02;0.75;;;;;;;29.78;66.61;101445.38;10528784;28;20104;-80
2022/08/03 10:31:06;;;;;;;0.85;0.30;;;;;;;29.52;62.33;101436.81;10538948;28;20036;-80
2022/08/03 10:36:09;;;;;;;0.08;0.00;;;;;;;29.61;64.51;101441.69;10532175;28;20093;-81
2022/08/03 10:41:14;;;;;;;0.85;0.57;;;;;;;30.38;60.67;101427.44;10500863;28;20093;-80
2022/08/03 10:46:19;;;;;;;0.00;0.00;;;;;;;30.03;60.69;101426.50;10525643;28;20494;-79
2022/08/03 10:51:22;;;;;;;6.32;0.73;;;;;;;30.01;58.80;101428.38;10526520;28;20047;-79
2022/08/03 11:01:56;;;;;;;4.13;1.35;;;;;;;29.96;58.96;101415.31;10535623;28;20495;-80
2022/08/03 11:07:22;;;;;;;1.35;0.45;;;;;;;29.79;59.31;101413.41;10530574;28;20036;-81
2022/08/03 11:12:25;;;;;;;0.93;0.25;;;;;;;30.74;56.61;101411.53;10561845;28;20050;-80
2022/08/03 11:17:37;;;;;;;0.47;0.17;;;;;;;30.87;59.80;101407.28;10557519;28;20042;-79
2022/08/03 11:22:58;;;;;;;0.35;0.25;;;;;;;30.90;54.36;101407.16;10543227;28;20081;-80
2022/08/03 11:28:26;;;;;;;0.32;0.20;;;;;;;30.40;51.80;101406.09;10549980;28;20028;-79
2022/08/03 11:33:29;;;;;;;;;;;;;;;30.61;54.07;101398.88;10577643;28;20134;-80
2022/08/03 11:38:30;;;;;;;0.20;0.08;;;;;;;30.28;56.76;101399.59;10535698;28;20556;-80
2022/08/03 11:43:36;;;;;;;1.17;0.65;;;;;;;30.24;56.95;101390.06;10547474;28;20044;-80
2022/08/03 11:48:42;;;;;;;0.50;0.50;;;;;;;30.34;53.70;101394.00;10522100;28;20084;-79
2022/08/03 11:53:46;;;;;;;0.43;0.30;;;;;;;30.43;52.36;101392.66;10540161;28;20032;-79
2022/08/03 11:58:54;;;;;;;0.98;0.55;;;;;;;31.20;54.95;101390.53;10551979;28;20418;-80
2022/08/03 12:04:15;;;;;;;1.75;0.10;;;;;;;30.72;52.14;101398.31;10536161;28;20039;-81
2022/08/03 12:09:17;;;;;;;1.63;0.70;;;;;;;30.79;56.35;101393.56;10521019;28;20470;-79
2022/08/03 12:14:21;;;;;;;0.70;0.65;;;;;;;31.08;52.86;101388.50;10516587;28;20051;-80
2022/08/03 12:19:44;;;;;;;0.77;0.55;;;;;;;31.59;44.50;101389.31;10499075;28;20033;-80
2022/08/03 12:24:45;;;;;;;2.50;1.50;;;;;;;31.40;47.82;101392.13;10509408;28;20032;-80
2022/08/03 12:29:51;;;;;;;0.77;0.40;;;;;;;31.50;47.64;101389.81;10521583;28;20388;-80
2022/08/03 12:34:59;;;;;;;1.45;0.70;;;;;;;31.62;49.53;101386.44;10524868;28;20090;-80
2022/08/03 12:40:05;;;;;;;0.17;0.08;;;;;;;31.81;50.89;101380.13;10512376;28;20048;-79
2022/08/03 12:45:30;;;;;;;0.28;0.22;;;;;;;31.57;47.65;101391.19;10515022;28;20389;-79
2022/08/03 12:50:35;;;;;;;0.90;0.77;;;;;;;31.76;49.91;101380.41;10494685;28;20040;-79
2022/08/03 12:55:38;;;;;;;0.50;0.32;;;;;;;31.19;52.90;101388.81;10513115;28;20048;-80
2022/08/03 13:01:00;;;;;;;0.20;0.15;;;;;;;31.67;51.91;101385.38;10533750;28;20048;-80
2022/08/03 13:06:17;;;;;;;0.05;0.05;;;;;;;31.49;48.35;101393.41;10520250;28;20143;-80
2022/08/03 13:11:24;;;;;;;2.17;0.70;;;;;;;31.96;50.03;101387.25;10516202;28;20036;-80
2022/08/03 13:16:49;;;;;;;0.60;0.30;;;;;;;31.57;50.39;101390.34;10533613;28;20380;-79
2022/08/03 13:21:51;;;;;;;1.65;0.80;;;;;;;31.59;49.83;101383.97;10503580;28;20036;-79
2022/08/03 13:27:06;;;;;;;1.77;0.30;;;;;;;31.62;54.06;101374.94;10525409;28;20384;-80
2022/08/03 13:32:27;;;;;;;0.60;0.60;;;;;;;31.83;51.67;101386.25;10522823;28;20051;-80
2022/08/03 13:37:31;;;;;;;0.60;0.28;;;;;;;31.84;51.22;101382.63;10537719;28;20138;-80
2022/08/03 13:42:35;;;;;;;0.00;0.00;;;;;;;32.06;49.63;101371.59;10539448;28;20556;-79
2022/08/03 13:47:36;;;;;;;0.10;0.10;;;;;;;31.88;48.68;101370.84;10542859;28;20048;-79
2022/08/03 13:52:38;;;;;;;2.00;0.73;;;;;;;31.76;49.02;101367.06;10538942;28;20414;-78
2022/08/03 13:57:40;;;;;;;0.00;0.00;;;;;;;31.53;46.56;101373.69;10545809;28;20056;-79
2022/08/03 14:03:02;;;;;;;0.32;0.32;;;;;;;31.72;47.49;101373.53;10567716;28;20051;-78
2022/08/03 14:08:13;;;;;;;0.00;0.00;;;;;;;32.09;52.15;101375.88;10543664;28;20038;-78
2022/08/03 14:13:15;;;;;;;0.68;0.25;;;;;;;31.62;47.97;101362.47;10534819;28;20051;-78
2022/08/03 14:18:19;;;;;;;0.32;0.17;;;;;;;31.41;48.94;101375.22;10535289;28;20058;-79
2022/08/03 14:23:36;;;;;;;0.00;0.00;;;;;;;31.59;47.38;101373.31;10535131;28;20047;-79
2022/08/03 14:28:38;;;;;;;4.00;0.00;;;;;;;31.53;50.60;101360.34;10552295;28;20043;-79
2022/08/03 14:33:39;;;;;;;0.35;0.20;;;;;;;31.42;49.20;101368.06;10537031;28;20052;-78
2022/08/03 14:38:41;;;;;;;0.43;0.32;;;;;;;31.31;44.35;101364.19;10515827;28;20056;-78
2022/08/03 14:43:43;;;;;;;0.00;0.00;;;;;;;31.37;50.51;101363.00;10519305;28;20052;-79
2022/08/03 14:49:04;;;;;;;0.52;0.43;;;;;;;31.43;48.96;101348.50;10567934;28;20506;-79
2022/08/03 14:54:25;;;;;;;0.00;0.00;;;;;;;30.84;50.94;101356.94;10547977;28;20035;-78
2022/08/03 14:59:27;;;;;;;0.25;0.20;;;;;;;31.26;52.60;101349.44;10520974;28;20051;-79
2022/08/03 15:04:48;;;;;;;0.15;0.08;;;;;;;31.41;50.41;101337.06;10552274;28;20136;-79
2022/08/03 15:09:50;;;;;;;0.20;0.10;;;;;;;31.25;50.25;101343.22;10535227;28;20048;-78
2022/08/03 15:14:52;;;;;;;0.03;0.03;;;;;;;31.54;55.03;101331.91;10515176;28;20063;-79
2022/08/03 15:19:55;;;;;;;0.03;0.03;;;;;;;31.18;53.78;101336.53;10514578;28;20067;-79
2022/08/03 15:25:17;;;;;;;0.00;0.00;;;;;;;30.79;56.73;101335.06;10528762;28;20044;-78
2022/08/03 15:30:38;;;;;;;0.00;0.00;;;;;;;31.13;55.25;101327.94;10528094;28;20052;-78
2022/08/03 15:35:40;;;;;;;0.17;0.08;;;;;;;31.03;59.84;101332.88;10518448;28;20055;-78
2022/08/03 15:40:42;;;;;;;0.00;0.00;;;;;;;31.05;58.52;101327.47;10506115;28;20522;-78
2022/08/03 15:45:43;;;;;;;0.63;0.45;;;;;;;30.84;59.85;101325.00;10514539;28;20035;-79
2022/08/03 15:50:53;;;;;;;0.28;0.28;;;;;;;30.81;59.53;101328.69;10519501;28;20036;-79
2022/08/03 15:55:55;;;;;;;0.03;0.03;;;;;;;30.79;66.82;101319.94;10540939;28;20046;-79
2022/08/03 16:01:00;;;;;;;0.00;0.00;;;;;;;30.74;60.99;101322.00;10543950;28;20054;-79
2022/08/03 16:06:05;;;;;;;0.10;0.10;;;;;;;30.88;55.84;101329.22;10532439;28;20150;-79
2022/08/03 16:11:09;;;;;;;0.00;0.00;;;;;;;30.71;57.83;101327.44;10524072;28;20072;-78
2022/08/03 16:16:11;;;;;;;0.20;0.20;;;;;;;30.61;61.43;101319.09;10539854;28;20051;-79
2022/08/03 16:21:13;;;;;;;0.08;0.08;;;;;;;30.47;59.35;101321.59;10543624;28;20048;-78
2022/08/03 16:26:21;;;;;;;0.00;0.00;;;;;;;30.57;59.47;101312.22;10496700;28;20048;-78
2022/08/03 16:31:31;;;;;;;0.25;0.25;;;;;;;30.69;56.14;101318.69;10497026;28;20052;-78
2022/08/03 16:36:33;;;;;;;0.47;0.35;;;;;;;30.74;62.07;101316.66;10521889;28;20048;-78
2022/08/03 16:41:35;;;;;;;0.10;0.10;;;;;;;30.27;63.91;101311.97;10532228;28;20044;-78
2022/08/03 16:47:01;;;;;;;1.50;0.40;;;;;;;30.21;63.10;101308.69;10539204;28;20048;-78
2022/08/03 16:52:06;;;;;;;0.30;0.25;;;;;;;30.15;65.00;101308.13;10543128;28;20051;-78
2022/08/03 16:57:07;;;;;;;0.00;0.00;;;;;;;30.09;66.50;101303.13;10520138;28;20063;-78
2022/08/03 17:02:19;;;;;;;0.00;0.00;;;;;;;30.00;72.23;101305.31;10555172;28;20043;-78
2022/08/03 17:07:26;;;;;;;0.00;0.00;;;;;;;29.98;66.09;101307.19;10527929;28;20089;-78
2022/08/03 17:12:30;;;;;;;0.05;0.05;;;;;;;30.01;62.28;101299.06;10529134;28;20480;-78
2022/08/03 17:17:34;;;;;;;0.10;0.00;;;;;;;29.82;67.66;101300.91;10545780;28;20097;-77
2022/08/03 17:22:59;;;;;;;0.00;0.00;;;;;;;29.66;68.68;101296.34;10526950;28;20044;-77
2022/08/03 17:28:04;;;;;;;0.10;0.10;;;;;;;29.54;67.07;101296.91;10525239;28;20093;-77
2022/08/03 17:33:26;;;;;;;0.93;0.20;;;;;;;29.42;75.56;101304.53;10533685;28;20445;-77
2022/08/03 17:38:38;;;;;;;0.00;0.00;;;;;;;29.29;78.76;101298.06;10535199;28;20075;-77
2022/08/03 17:43:46;;;;;;;0.08;0.08;;;;;;;29.18;82.96;101300.34;10537858;28;20048;-77
2022/08/03 17:49:08;;;;;;;0.10;0.10;;;;;;;29.01;80.75;101303.78;10519808;28;20040;-78
2022/08/03 17:54:40;;;;;;;1.20;0.80;;;;;;;28.71;96.45;101299.75;10530565;28;20420;-77
2022/08/03 18:05:53;;;;;;;0.00;0.00;;;;;;;28.54;100.00;101304.94;10537060;28;20089;-78
2022/08/03 18:11:20;;;;;;;0.00;0.00;;;;;;;28.48;100.00;101306.91;10524571;28;20062;-77
2022/08/03 18:16:44;;;;;;;0.00;0.00;;;;;;;28.31;100.00;101309.44;10529605;28;20040;-78
2022/08/03 18:21:50;;;;;;;0.08;0.08;;;;;;;28.14;100.00;101300.41;10523506;28;20074;-77
2022/08/03 18:27:09;;;;;;;0.00;0.00;;;;;;;28.20;90.79;101309.00;10530775;28;20049;-77
2022/08/03 18:32:13;;;;;;;0.05;0.05;;;;;;;27.88;100.00;101300.59;10521885;28;20093;-77
2022/08/03 18:37:22;;;;;;;1.27;0.32;;;;;;;27.61;92.06;101298.09;10539267;28;20048;-77
2022/08/03 18:42:27;;;;;;;0.00;0.00;;;;;;;27.70;95.46;101303.88;10520016;28;20131;-77
2022/08/03 18:47:47;;;;;;;0.17;0.10;;;;;;;27.36;100.00;101307.84;10547795;28;20048;-77
2022/08/03 18:53:02;;;;;;;0.28;0.15;;;;;;;27.15;100.00;101304.22;10525203;28;20048;-77
2022/08/03 18:58:08;;;;;;;0.10;0.10;;;;;;;26.46;100.00;101312.84;10556681;28;20040;-77
2022/08/03 19:03:23;;;;;;;0.00;0.00;;;;;;;25.91;100.00;101324.25;10555686;28;20528;-77
2022/08/03 19:08:41;;;;;;;0.00;0.00;;;;;;;25.72;100.00;101317.84;10540774;28;20032;-77
2022/08/03 19:13:48;;;;;;;0.00;0.00;;;;;;;25.55;100.00;101315.72;10512834;28;20110;-77
2022/08/03 19:18:52;;;;;;;0.63;0.30;;;;;;;25.54;100.00;101321.91;10549993;28;20048;-77
2022/08/03 19:23:58;;;;;;;0.00;0.00;;;;;;;25.35;100.00;101307.44;10537515;28;20466;-77
2022/08/03 19:29:01;;;;;;;0.00;0.00;;;;;;;25.63;100.00;101311.06;10540011;28;20047;-78
2022/08/03 19:34:03;;;;;;;0.00;0.00;;;;;;;25.32;100.00;101318.09;10566698;28;20491;-78
2022/08/03 19:39:05;;;;;;;0.10;0.10;;;;;;;24.92;100.00;101328.91;10506600;28;20082;-78
2022/08/03 19:44:17;;;;;;;0.00;0.00;;;;;;;24.84;100.00;101321.22;10533319;28;20032;-77
2022/08/03 19:49:25;;;;;;;0.10;0.10;;;;;;;24.52;100.00;101328.19;10532993;28;20040;-78
2022/08/03 19:54:50;;;;;;;0.00;0.00;;;;;;;24.29;100.00;101324.38;10579453;28;20065;-78
2022/08/03 19:59:56;;;;;;;0.10;0.10;;;;;;;24.14;100.00;101322.97;10546544;28;20487;-77
2022/08/03 20:04:58;;;;;;;0.00;0.00;;;;;;;24.06;100.00;101331.06;10519402;28;20491;-79
2022/08/03 20:10:04;;;;;;;0.22;0.20;;;;;;;23.68;100.00;101338.03;10510824;28;20044;-78
2022/08/03 20:15:06;;;;;;;0.10;0.10;;;;;;;23.67;100.00;101336.28;10534132;28;20071;-78
2022/08/03 20:20:09;;;;;;;0.00;0.00;;;;;;;23.53;100.00;101333.09;10536361;28;20044;-78
2022/08/03 20:25:12;;;;;;;0.10;0.10;;;;;;;23.27;100.00;101332.75;10535764;28;20069;-78
2022/08/03 20:30:21;;;;;;;0.30;0.08;;;;;;;23.32;100.00;101322.13;10508613;28;20048;-78
2022/08/03 20:35:27;;;;;;;0.10;0.10;;;;;;;23.02;100.00;101332.34;10497624;28;20047;-78
2022/08/03 20:40:39;;;;;;;0.10;0.10;;;;;;;23.06;100.00;101333.16;10523619;28;20039;-77
2022/08/03 20:45:42;;;;;;;0.52;0.45;;;;;;;22.88;100.00;101345.72;10502609;28;20094;-77
2022/08/03 20:51:04;;;;;;;0.52;0.30;;;;;;;22.98;100.00;101336.78;10542018;28;20048;-78
2022/08/03 20:56:21;;;;;;;0.10;0.00;;;;;;;;;;10544378;28;20044;-78
2022/08/03 21:01:23;;;;;;;0.95;0.30;;;;;;;22.56;100.00;101354.19;10527014;28;20044;-78
2022/08/03 21:06:45;;;;;;;0.30;0.30;;;;;;;22.29;100.00;101359.81;10541754;28;20501;-78
2022/08/03 21:12:12;;;;;;;0.28;0.28;;;;;;;22.15;100.00;101353.94;10528841;28;20048;-78
2022/08/03 21:17:21;;;;;;;0.00;0.00;;;;;;;21.75;100.00;101355.38;10546058;28;20136;-78
2022/08/03 21:22:48;;;;;;;0.35;0.20;;;;;;;21.59;100.00;101353.84;10535150;28;20066;-78
2022/08/03 21:27:50;;;;;;;0.05;0.00;;;;;;;21.47;100.00;101353.09;10535447;28;20050;-77
2022/08/03 21:33:06;;;;;;;0.68;0.57;;;;;;;21.34;100.00;101348.84;10520900;28;20052;-78
2022/08/03 21:38:20;;;;;;;0.28;0.28;;;;;;;21.49;100.00;101345.19;10509380;28;20040;-77
2022/08/03 21:43:33;;;;;;;0.00;0.00;;;;;;;21.42;100.00;101336.53;10525253;28;20048;-77
2022/08/03 21:48:37;;;;;;;0.17;0.17;;;;;;;21.27;100.00;101342.84;10517041;28;20040;-78
2022/08/03 21:54:01;;;;;;;0.30;0.30;;;;;;;21.10;100.00;101350.00;10507542;28;20051;-77
2022/08/03 21:59:07;;;;;;;0.73;0.10;;;;;;;21.12;100.00;101349.09;10527136;28;20048;-78
2022/08/03 22:04:13;;;;;;;0.10;0.10;;;;;;;21.08;100.00;101334.31;10527771;28;20038;-77
2022/08/03 22:09:35;;;;;;;0.10;0.00;;;;;;;21.02;100.00;101337.00;10522623;28;20127;-77
2022/08/03 22:14:37;;;;;;;0.30;0.20;;;;;;;20.87;100.00;101333.66;10515203;28;20617;-77
2022/08/03 22:19:39;;;;;;;0.28;0.20;;;;;;;20.82;100.00;101324.97;10504524;28;20048;-78
2022/08/03 22:24:51;;;;;;;0.10;0.10;;;;;;;21.01;100.00;101324.78;10553717;28;20403;-78
2022/08/03 22:30:01;;;;;;;0.25;0.10;;;;;;;20.90;100.00;101332.75;10532060;28;20052;-77
2022/08/03 22:35:06;;;;;;;0.20;0.20;;;;;;;20.67;100.00;101325.97;10538164;28;20052;-78
2022/08/03 22:40:11;;;;;;;0.00;0.00;;;;;;;20.65;100.00;101326.88;10542596;28;20437;-77
2022/08/03 22:45:13;;;;;;;0.17;0.10;;;;;;;20.49;100.00;101336.59;10534836;28;20061;-77
2022/08/03 22:50:37;;;;;;;0.00;0.00;;;;;;;20.40;100.00;101337.53;10542985;28;20040;-77
2022/08/03 22:55:39;;;;;;;0.28;0.20;;;;;;;20.34;100.00;101332.34;10550122;28;20570;-78
2022/08/03 23:00:50;;;;;;;0.05;0.05;;;;;;;20.32;100.00;101332.38;10562167;28;20205;-77
2022/08/03 23:05:57;;;;;;;0.10;0.10;;;;;;;20.20;100.00;101341.19;10530304;28;20050;-78
2022/08/03 23:11:07;;;;;;;;;;;;;;;20.10;100.00;101342.13;10541471;28;20529;-77
2022/08/03 23:16:09;;;;;;;1.92;0.10;;;;;;;20.21;100.00;101327.22;10529385;28;19920;-77
2022/08/03 23:21:11;;;;;;;0.08;0.08;;;;;;;20.18;100.00;101332.47;10522782;28;20066;-77
2022/08/03 23:26:16;;;;;;;0.52;0.28;;;;;;;20.12;100.00;101327.28;10503659;28;20538;-77
2022/08/03 23:31:24;;;;;;;0.00;0.00;;;;;;;20.18;100.00;101331.63;10524055;28;20054;-77
2022/08/03 23:36:25;;;;;;;2.30;0.63;;;;;;;20.18;100.00;101322.00;10506114;28;20391;-78
2022/08/03 23:41:33;;;;;;;0.40;0.40;;;;;;;20.05;100.00;101322.97;10498098;28;20653;-77
2022/08/03 23:46:36;;;;;;;0.60;0.45;;;;;;;20.10;100.00;101313.34;10529767;28;20828;-78